Meteorología y climatología de Navarra
Datos de la estación - Meteo Navarra

Estación de Urbasa GN

Altitud 886 m.


Datos desde el 23/05/2020 hasta el 24/05/2020 en horario solar
Los datos son PROVISIONALES

Anterior Página 1 de 1 Siguiente Descargar: Formato para Excel 2000 o superior   Formato csv   Formato para OpenOffice Calc
Fecha Temperatura Humedad relativa Radiación global Insolación Precipitación Vel. viento 10 m Vel. viento 10 m Dir. viento 10 m
ºC % W/m² s l/m² m/s km/h º
23/05/2020 0:00 12.0 98 0.0 0 0.0 1.7 6.2 343
23/05/2020 0:10 12.0 98 0.0 0 0.0 1.7 6.0 355
23/05/2020 0:20 12.0 98 0.0 0 0.0 1.3 4.7 353
23/05/2020 0:30 11.9 98 0.0 0 0.0 1.7 6.1 337
23/05/2020 0:40 12.0 98 0.0 0 0.0 1.4 5.1 342
23/05/2020 0:50 11.9 98 0.0 0 0.0 1.7 6.0 335
23/05/2020 1:00 11.9 98 0.0 0 0.0 1.9 6.8 352
23/05/2020 1:10 11.9 98 0.0 0 0.0 2.2 8.0 357
23/05/2020 1:20 11.8 98 0.0 0 0.0 1.7 6.0 354
23/05/2020 1:30 11.8 98 0.0 0 0.0 1.8 6.5 359
23/05/2020 1:40 11.7 98 0.0 0 0.1 2.1 7.6 4
23/05/2020 1:50 11.8 98 0.0 0 0.0 2.4 8.5 10
23/05/2020 2:00 11.7 98 0.0 0 0.0 2.3 8.4 357
23/05/2020 2:10 11.7 98 0.0 0 0.0 1.8 6.6 355
23/05/2020 2:20 11.7 98 0.0 0 0.0 1.6 5.7 354
23/05/2020 2:30 11.7 98 0.0 0 0.0 1.3 4.8 10
23/05/2020 2:40 11.8 98 0.0 0 0.0 2.2 7.8 352
23/05/2020 2:50 11.7 98 0.0 0 0.0 1.9 6.8 350
23/05/2020 3:00 11.7 98 0.0 0 0.1 1.6 5.6 340
23/05/2020 3:10 11.7 98 0.0 0 0.0 1.6 5.8 344
23/05/2020 3:20 11.7 98 0.0 0 0.0 1.8 6.4 341
23/05/2020 3:30 11.7 98 0.0 0 0.0 1.9 6.7 333
23/05/2020 3:40 11.7 98 0.0 0 0.0 1.4 5.1 342
23/05/2020 3:50 11.6 98 0.0 0 0.0 1.5 5.4 335
23/05/2020 4:00 11.6 98 0.0 0 0.0 1.6 5.6 332
23/05/2020 4:10 11.6 98 0.0 0 0.0 1.7 6.1 324
23/05/2020 4:20 11.7 98 0.0 0 0.0 1.4 5.1 328
23/05/2020 4:30 11.7 98 0.0 0 0.0 1.5 5.3 337
23/05/2020 4:40 11.7 98 0.0 0 0.0 1.6 5.8 343
23/05/2020 4:50 11.7 99 0.0 0 0.0 1.6 5.7 349
23/05/2020 5:00 11.6 98 0.0 0 0.0 1.8 6.4 347
23/05/2020 5:10 11.6 98 0.0 0 0.0 1.6 5.9 354
23/05/2020 5:20 11.6 98 0.0 0 0.0 1.8 6.4 345
23/05/2020 5:30 11.5 98 0.0 0 0.1 2.0 7.2 342
23/05/2020 5:40 11.5 98 2.0 0 0.0 1.5 5.4 338
23/05/2020 5:50 11.6 99 10.7 0 0.0 1.6 5.9 350
23/05/2020 6:00 11.4 98 13.8 0 0.0 2.0 7.3 347
23/05/2020 6:10 11.5 98 21.6 0 0.0 1.8 6.6 360
23/05/2020 6:20 11.5 99 12.3 0 0.0 2.0 7.1 360
23/05/2020 6:30 11.5 99 25.7 0 0.0 2.0 7.3 4
23/05/2020 6:40 11.5 98 33.2 0 0.0 2.0 7.3 345
23/05/2020 6:50 11.6 98 54.7 0 0.0 2.0 7.3 13
23/05/2020 7:00 11.7 99 57.8 0 0.0 1.5 5.5 10
23/05/2020 7:10 11.7 99 55.0 0 0.0 1.6 5.8 15
23/05/2020 7:20 11.7 98 77.6 0 0.0 1.5 5.3 360
23/05/2020 7:30 11.9 98 131.9 0 0.1 1.5 5.5 5
23/05/2020 7:40 12.0 98 122.4 0 0.0 1.6 5.7 4
23/05/2020 7:50 12.1 99 118.1 0 0.0 1.8 6.6 0
23/05/2020 8:00 12.0 98 153.1 0 0.0 2.5 9.0 357
23/05/2020 8:10 12.0 98 147.0 0 0.0 2.6 9.3 1
23/05/2020 8:20 12.0 98 159.8 0 0.0 2.4 8.6 347
23/05/2020 8:30 11.9 98 144.5 0 0.0 1.8 6.4 349
23/05/2020 8:40 11.6 98 158.2 0 0.1 2.5 9.0 342
23/05/2020 8:50 11.3 98 176.0 0 0.0 2.8 10.2 342
23/05/2020 9:00 11.0 99 169.6 0 0.0 2.3 8.1 343
23/05/2020 9:10 10.8 98 175.6 0 0.0 2.8 10.0 352
23/05/2020 9:20 10.5 98 203.0 0 0.0 2.7 9.8 347
23/05/2020 9:30 10.5 98 207.5 0 0.0 3.0 10.9 352
23/05/2020 9:40 10.4 98 181.6 0 0.0 2.8 10.0 344
23/05/2020 9:50 10.4 98 188.0 0 0.0 2.7 9.6 335
23/05/2020 10:00 10.5 98 197.1 0 0.0 2.3 8.2 343
23/05/2020 10:10 10.4 98 235.5 0 0.0 2.3 8.1 349
23/05/2020 10:20 10.4 98 253.4 0 0.0 2.1 7.5 349
23/05/2020 10:30 10.3 98 276.0 0 0.0 2.5 9.0 342
23/05/2020 10:40 10.2 98 249.2 0 0.0 2.5 8.9 353
23/05/2020 10:50 10.2 98 309.1 0 0.0 2.9 10.3 2
23/05/2020 11:00 10.2 98 287.1 0 0.0 2.7 9.6 345
23/05/2020 11:10 10.2 98 255.4 0 0.0 2.1 7.5 350
23/05/2020 11:20 10.1 98 275.3 0 0.1 2.9 10.5 344
23/05/2020 11:30 10.0 98 270.1 0 0.0 3.3 11.7 5
23/05/2020 11:40 10.1 98 669.7 466 0.0 3.2 11.7 357
23/05/2020 11:50 10.4 98 561.2 304 0.0 3.5 12.7 1
23/05/2020 12:00 10.3 98 530.6 314 0.0 3.2 11.6 357
23/05/2020 12:10 10.2 98 343.7 26 0.0 2.9 10.3 358
23/05/2020 12:20 10.4 98 520.0 296 0.0 2.5 8.8 2
23/05/2020 12:30 10.6 98 509.6 340 0.0 2.2 7.8 353
23/05/2020 12:40 10.5 98 403.0 86 0.0 2.2 8.0 345
23/05/2020 12:50 10.5 97 385.7 130 0.0 2.7 9.6 347
23/05/2020 13:00 10.0 97 124.8 0 0.0 2.8 10.0 350
23/05/2020 13:10 9.4 97 176.9 0 0.0 2.0 7.3 1
23/05/2020 13:20 8.9 97 211.1 0 0.0 2.8 10.0 354
23/05/2020 13:30 8.6 98 308.5 0 0.0 3.1 11.1 353
23/05/2020 13:40 8.6 98 307.5 0 0.0 2.9 10.3 357
23/05/2020 13:50 8.5 98 270.2 0 0.0 2.8 10.2 357
23/05/2020 14:00 8.6 98 227.2 0 0.0 3.7 13.2 350
23/05/2020 14:10 8.3 98 209.8 0 0.0 2.7 9.9 343
23/05/2020 14:20 8.4 98 206.6 0 0.0 3.3 11.8 341
23/05/2020 14:30 8.5 98 189.2 0 0.0 2.9 10.4 346
23/05/2020 14:40 8.6 98 193.9 0 0.0 3.0 10.6 353
23/05/2020 14:50 8.6 98 156.1 0 0.0 2.9 10.3 351
23/05/2020 15:00 8.8 98 156.0 0 0.0 2.7 9.8 335
23/05/2020 15:10 8.6 98 185.0 0 0.0 3.1 11.2 331
23/05/2020 15:20 8.7 98 207.0 0 0.0 2.6 9.5 348
23/05/2020 15:30 8.8 98 184.6 0 0.0 2.6 9.3 339
23/05/2020 15:40 8.4 98 285.4 76 0.0 3.3 12.0 343
23/05/2020 15:50 8.7 97 270.7 68 0.0 2.7 9.8 352
23/05/2020 16:00 9.2 94 167.5 0 0.0 2.5 8.9 343
23/05/2020 16:10 9.1 95 92.7 0 0.0 3.5 12.6 349
23/05/2020 16:20 8.9 96 107.7 0 0.0 3.6 13.0 354
23/05/2020 16:30 8.9 96 84.8 0 0.0 3.7 13.4 351
23/05/2020 16:40 9.0 96 47.8 0 0.0 3.2 11.5 348
23/05/2020 16:50 8.8 97 47.1 0 0.0 3.0 10.7 349
23/05/2020 17:00 8.7 97 65.2 0 0.0 3.9 13.9 357
23/05/2020 17:10 8.8 96 85.1 0 0.0 2.7 9.6 352
23/05/2020 17:20 8.9 96 85.5 0 0.0 3.2 11.4 357
23/05/2020 17:30 8.8 95 62.1 0 0.0 2.8 10.1 354
23/05/2020 17:40 8.8 94 61.0 0 0.0 2.8 9.9 5
23/05/2020 17:50 8.9 92 55.9 0 0.0 2.5 9.1 355
23/05/2020 18:00 8.9 91 58.9 0 0.0 2.3 8.4 358
23/05/2020 18:10 8.8 90 34.3 0 0.0 3.7 13.1 351
23/05/2020 18:20 8.7 91 41.7 0 0.0 3.1 11.2 5
23/05/2020 18:30 8.7 90 33.0 0 0.0 3.0 10.6 359
23/05/2020 18:40 8.5 91 29.2 0 0.0 3.0 10.9 342
23/05/2020 18:50 8.4 91 12.8 0 0.0 2.8 10.2 354
23/05/2020 19:00 8.2 91 0.0 0 0.0 3.2 11.6 346
23/05/2020 19:10 8.1 89 0.0 0 0.0 2.9 10.5 355
23/05/2020 19:20 7.9 89 0.0 0 0.0 2.9 10.5 331
23/05/2020 19:30 7.8 89 0.0 0 0.0 2.0 7.2 336
23/05/2020 19:40 7.8 90 0.0 0 0.0 2.5 9.1 345
23/05/2020 19:50 7.6 90 0.0 0 0.0 1.8 6.4 336
23/05/2020 20:00 7.5 92 0.0 0 0.0 2.2 7.8 340
23/05/2020 20:10 7.5 93 0.0 0 0.0 1.7 6.2 352
23/05/2020 20:20 7.4 93 0.0 0 0.0 1.5 5.5 1
23/05/2020 20:30 7.4 93 0.0 0 0.0 1.6 5.8 346
23/05/2020 20:40 7.5 93 0.0 0 0.0 2.4 8.8 342
23/05/2020 20:50 7.4 93 0.0 0 0.0 2.1 7.6 350
23/05/2020 21:00 7.4 94 0.0 0 0.0 1.8 6.5 358
23/05/2020 21:10 7.5 94 0.0 0 0.0 2.1 7.6 349
23/05/2020 21:20 7.5 94 0.0 0 0.0 2.3 8.1 341
23/05/2020 21:30 7.6 94 0.0 0 0.0 1.9 6.8 354
23/05/2020 21:40 7.6 94 0.0 0 0.0 2.0 7.2 1
23/05/2020 21:50 7.6 95 0.0 0 0.0 1.2 4.4 351
23/05/2020 22:00 7.6 95 0.0 0 0.0 1.3 4.6 344
23/05/2020 22:10 7.5 95 0.0 0 0.0 1.8 6.6 345
23/05/2020 22:20 7.6 95 0.0 0 0.0 1.9 6.7 351
23/05/2020 22:30 7.6 95 0.0 0 0.0 1.2 4.1 346
23/05/2020 22:40 7.6 96 0.0 0 0.0 1.8 6.4 342
23/05/2020 22:50 7.6 95 0.0 0 0.0 1.9 6.8 343
23/05/2020 23:00 7.7 95 0.0 0 0.0 1.7 6.0 354
23/05/2020 23:10 7.7 95 0.0 0 0.0 1.4 5.2 359
23/05/2020 23:20 7.7 95 0.0 0 0.0 2.1 7.7 346
23/05/2020 23:30 7.7 95 0.0 0 0.0 1.3 4.7 8
23/05/2020 23:40 7.7 95 0.0 0 0.0 1.5 5.4 359
23/05/2020 23:50 7.7 95 0.0 0 0.0 1.3 4.8 353
Anterior Página 1 de 1 Siguiente

NOTA: Tipo de datos según el color:
   - Valores diarios o 10 minutos correctos
   - Valores diarios calculados a partir de un número de datos 10 minutos menor que 144 y mayor que 120, o de un número de datos semihorarios menor que 48 y mayor que 40 (caso de las estaciones de INTIA y del Ministerio)
   - Valores diez minutos estimados


Contacto        Enlaces        Aviso legal